Time;durP1;ratioP1;P1;durP2;ratioP2;P2;SDS_P1;SDS_P2;PMS_P1;PMS_P2;Temp;Humidity;BMP_temperature;BMP_pressure;BME280_temperature;BME280_humidity;BME280_pressure;Samples;Min_cycle;Max_cycle;Signal;HPM_P1;HPM_P2
2022/07/31 00:00:46;;;;;;;3.30;2.97;;;21.80;42.70;;;22.75;36.53;97876.19;5088359;28;20417;-43
2022/07/31 00:03:14;;;;;;;3.47;2.80;;;21.80;42.60;;;22.75;36.72;97870.75;5086926;28;20052;-42
2022/07/31 00:05:42;;;;;;;3.83;3.38;;;21.80;42.50;;;22.72;36.54;97869.34;5088016;28;20063;-42
2022/07/31 00:08:10;;;;;;;3.58;3.17;;;21.70;42.60;;;22.71;36.78;97864.97;5086659;28;20044;-42
2022/07/31 00:10:38;;;;;;;3.05;2.75;;;21.70;42.60;;;22.73;36.61;97862.84;5087117;28;20059;-42
2022/07/31 00:13:06;;;;;;;3.20;2.67;;;21.80;42.60;;;22.73;36.63;97857.41;5070878;28;20257;-43
2022/07/31 00:15:33;;;;;;;5.25;2.90;;;21.80;42.50;;;22.73;36.81;97865.53;5088700;28;20051;-42
2022/07/31 00:18:01;;;;;;;3.50;3.08;;;21.80;42.70;;;22.75;36.65;97859.88;5086804;28;20055;-42
2022/07/31 00:20:29;;;;;;;7.85;2.80;;;21.80;42.70;;;22.76;36.83;97861.53;5086954;28;20662;-42
2022/07/31 00:22:57;;;;;;;4.38;2.80;;;21.80;42.70;;;22.77;36.44;97855.06;5087148;28;20054;-42
2022/07/31 00:25:25;;;;;;;3.60;2.33;;;21.80;42.70;;;22.78;36.58;97862.97;5088604;28;20052;-43
2022/07/31 00:27:53;;;;;;;3.80;2.78;;;21.80;42.60;;;22.76;37.08;97862.38;5068309;28;20052;-42
2022/07/31 00:30:21;;;;;;;3.33;2.90;;;21.80;43.20;;;22.74;37.35;97856.34;5087587;28;20047;-44
2022/07/31 00:32:49;;;;;;;4.28;3.08;;;21.80;43.30;;;22.73;37.50;97851.97;5087241;28;20043;-43
2022/07/31 00:35:19;;;;;;;2.60;2.30;;;21.80;43.50;;;22.72;37.37;97854.91;5088153;28;20383;-42
2022/07/31 00:37:47;;;;;;;3.63;2.72;;;21.80;43.60;;;22.68;37.44;97851.88;5065972;28;20064;-42
2022/07/31 00:40:15;;;;;;;4.15;2.70;;;21.70;43.70;;;22.66;37.42;97855.84;5087252;28;20048;-42
2022/07/31 00:42:44;;;;;;;4.18;2.90;;;21.70;43.80;;;22.64;37.32;97856.09;5086644;28;20066;-42
2022/07/31 00:45:12;;;;;;;5.60;2.90;;;21.70;43.70;;;22.63;37.41;97849.03;5088120;28;20051;-42
2022/07/31 00:47:41;;;;;;;3.78;3.13;;;21.70;43.60;;;22.58;37.51;97852.41;5086567;28;20058;-42
2022/07/31 00:50:10;;;;;;;4.13;2.33;;;21.70;43.80;;;22.55;37.37;97850.19;5085948;28;20356;-42
2022/07/31 00:52:39;;;;;;;2.53;2.33;;;21.60;43.80;;;22.53;37.30;97854.22;5086920;28;20052;-42
2022/07/31 00:55:07;;;;;;;2.97;2.47;;;21.60;43.70;;;22.52;37.83;97852.53;5070206;28;20338;-42
2022/07/31 00:57:35;;;;;;;3.42;2.60;;;21.60;44.00;;;22.47;37.54;97850.53;5053831;28;20063;-43
2022/07/31 01:00:05;;;;;;;3.20;2.90;;;21.50;44.10;;;22.42;38.10;97848.50;5086378;28;20051;-42
2022/07/31 01:02:33;;;;;;;2.88;2.30;;;21.50;44.60;;;22.37;38.32;97847.53;5087570;28;20062;-43
2022/07/31 01:05:01;;;;;;;3.75;2.50;;;21.40;44.70;;;22.34;38.35;97864.28;5087429;28;20052;-43
2022/07/31 01:07:29;;;;;;;5.22;2.22;;;21.40;45.00;;;22.32;38.22;97867.25;5087641;28;20040;-42
2022/07/31 01:10:01;;;;;;;3.38;2.35;;;21.40;45.00;;;22.28;38.19;97857.09;5087178;28;20036;-42
2022/07/31 01:12:43;;;;;;;2.67;2.47;;;21.30;45.40;;;22.26;38.50;97853.78;5086701;28;20044;-43
2022/07/31 01:15:12;;;;;;;3.28;2.97;;;21.30;45.20;;;22.22;37.89;97853.38;5070852;28;20215;-43
2022/07/31 01:17:44;;;;;;;2.65;2.45;;;21.30;44.80;;;22.20;38.00;97850.09;5052847;28;20052;-42
2022/07/31 01:20:12;;;;;;;4.95;3.03;;;21.20;44.70;;;22.17;38.28;97859.47;5087047;28;20052;-42
2022/07/31 01:22:55;;;;;;;3.95;2.47;;;21.20;44.90;;;22.13;38.22;97852.88;5053265;28;20241;-42
2022/07/31 01:26:15;;;;;;;3.75;3.45;;;21.10;45.60;;;22.08;38.41;97855.47;5068823;28;20052;-42
2022/07/31 01:29:23;;;;;;;2.55;2.33;;;21.10;46.10;;;22.02;38.16;97854.50;5039871;28;20341;-42
2022/07/31 01:32:02;;;;;;;5.13;2.53;;;21.00;45.70;;;21.99;38.46;97860.38;5055630;28;20052;-42
2022/07/31 01:34:59;;;;;;;4.07;3.67;;;20.90;45.60;;;21.97;38.37;97862.47;5068456;28;20056;-42
2022/07/31 01:37:37;;;;;;;4.80;3.05;;;20.90;46.70;;;21.92;38.92;97858.81;5070281;28;20249;-42
2022/07/31 01:40:13;;;;;;;2.92;2.63;;;20.90;46.20;;;21.87;38.80;97853.22;5054293;28;20055;-44
2022/07/31 01:42:49;;;;;;;4.80;2.80;;;20.80;46.40;;;21.82;39.08;97853.94;5086092;28;20480;-43
2022/07/31 01:45:19;;;;;;;3.15;2.53;;;20.80;46.30;;;21.76;38.76;97861.09;5086377;28;20052;-42
2022/07/31 01:47:49;;;;;;;3.10;2.80;;;20.70;46.10;;;21.71;38.92;97854.69;5050216;28;20060;-42
2022/07/31 01:50:21;;;;;;;3.80;3.30;;;20.70;46.10;;;21.68;38.86;97847.84;5067935;28;20040;-43
2022/07/31 01:53:17;;;;;;;2.72;2.50;;;20.70;46.10;;;21.66;38.89;97858.09;5054602;28;20059;-42
2022/07/31 01:55:51;;;;;;;3.67;2.60;;;20.60;46.20;;;21.61;39.17;97850.63;5071374;28;20058;-42
2022/07/31 01:58:40;;;;;;;3.42;2.53;;;20.50;46.40;;;21.59;39.36;97854.63;5057919;28;20261;-42
2022/07/31 02:01:19;;;;;;;3.55;2.92;;;20.60;46.70;;;21.60;39.23;97851.69;5057278;28;20062;-42
2022/07/31 02:03:56;;;;;;;3.63;2.80;;;20.60;46.40;;;21.59;39.12;97847.31;5090183;28;20060;-43
2022/07/31 02:06:28;;;;;;;4.80;2.67;;;20.60;46.20;;;21.55;39.11;97848.00;5056739;28;20320;-42
2022/07/31 02:08:58;;;;;;;3.38;2.90;;;20.60;46.40;;;21.51;39.17;97844.09;5056187;28;20040;-42
2022/07/31 02:11:26;;;;;;;3.40;2.80;;;20.50;46.50;;;21.47;39.16;97841.03;5056825;28;20081;-42
2022/07/31 02:13:58;;;;;;;4.40;3.50;;;20.40;46.40;;;21.43;39.40;97847.91;5055897;28;20055;-43
2022/07/31 02:16:31;;;;;;;2.58;2.38;;;20.40;47.00;;;21.36;39.85;97839.84;5056639;28;20429;-43
2022/07/31 02:19:10;;;;;;;3.92;2.85;;;20.40;47.10;;;21.34;39.66;97846.56;5090442;28;20498;-42
2022/07/31 02:21:38;;;;;;;4.38;2.53;;;20.30;47.10;;;21.32;39.36;97844.06;5091148;28;20056;-44
2022/07/31 02:24:06;;;;;;;4.13;3.67;;;20.30;46.90;;;21.33;39.79;97840.31;5090720;28;20050;-42
2022/07/31 02:26:37;;;;;;;3.65;2.60;;;20.40;47.00;;;21.33;39.89;97842.22;5090629;28;20056;-44
2022/07/31 02:29:10;;;;;;;3.30;2.65;;;20.40;47.00;;;21.31;39.81;97836.19;5071049;28;20362;-43
2022/07/31 02:31:54;;;;;;;4.68;2.85;;;20.40;47.10;;;21.30;39.80;97832.63;5057308;28;20048;-43
2022/07/31 02:34:33;;;;;;;3.88;2.90;;;20.30;47.20;;;21.29;39.54;97835.59;5057272;28;20074;-42
2022/07/31 02:37:02;;;;;;;4.00;2.67;;;20.30;47.10;;;21.26;39.76;97838.72;5088647;28;20048;-43
2022/07/31 02:39:33;;;;;;;3.17;2.60;;;20.20;46.80;;;21.21;39.37;97831.31;5070789;28;20052;-42
2022/07/31 02:42:01;;;;;;;2.95;2.42;;;20.20;46.50;;;21.18;39.32;97829.03;5056141;28;20071;-44
2022/07/31 02:44:33;;;;;;;2.78;2.45;;;20.10;46.60;;;21.13;39.49;97829.72;5070917;28;20062;-43
2022/07/31 02:47:04;;;;;;;4.07;2.70;;;20.10;46.60;;;21.08;39.84;97828.72;5053583;28;20376;-43
2022/07/31 02:49:35;;;;;;;4.28;2.80;;;20.00;46.70;;;21.02;39.79;97828.56;5070410;28;20051;-43
2022/07/31 02:52:04;;;;;;;5.65;2.28;;;20.00;46.90;;;21.00;39.85;97827.16;5087997;28;20048;-43
2022/07/31 02:54:38;;;;;;;3.03;2.70;;;20.00;46.90;;;20.98;39.82;97834.66;5072424;28;20058;-42
2022/07/31 02:57:06;;;;;;;4.85;3.13;;;19.90;47.20;;;20.94;39.92;97828.03;5055761;28;20364;-42
2022/07/31 02:59:38;;;;;;;3.22;2.58;;;20.00;47.30;;;20.91;40.20;97829.28;5071425;28;20056;-43
2022/07/31 03:02:06;;;;;;;4.95;2.80;;;19.90;47.70;;;20.88;39.95;97835.16;5070206;28;20055;-42
2022/07/31 03:04:40;;;;;;;2.75;2.53;;;19.90;48.20;;;20.85;39.89;97831.00;5088129;28;20059;-42
2022/07/31 03:07:09;;;;;;;2.95;2.63;;;19.90;47.50;;;20.85;40.05;97822.06;5053486;28;20056;-43
2022/07/31 03:09:37;;;;;;;4.07;2.92;;;19.90;47.30;;;20.84;39.97;97826.66;5086930;28;20058;-42
2022/07/31 03:12:49;;;;;;;4.40;3.38;;;19.80;47.20;;;20.85;40.03;97825.59;5081554;28;20056;-43
2022/07/31 03:15:22;;;;;;;4.43;3.42;;;19.70;47.90;;;20.80;40.28;97819.19;5071679;28;20424;-43
2022/07/31 03:17:52;;;;;;;4.25;3.13;;;19.70;47.80;;;20.78;39.92;97824.00;5087768;28;20249;-42
2022/07/31 03:20:28;;;;;;;2.88;2.60;;;19.70;47.50;;;20.76;39.80;97820.69;5086660;28;20064;-43
2022/07/31 03:22:56;;;;;;;5.05;2.75;;;19.70;47.40;;;20.72;39.95;97824.91;5089586;28;20060;-43
2022/07/31 03:25:25;;;;;;;3.45;2.72;;;19.70;47.50;;;20.70;40.01;97819.69;5054727;28;20048;-43
2022/07/31 03:27:53;;;;;;;3.67;2.70;;;19.70;47.50;;;20.71;40.04;97820.56;5069957;28;20062;-42
2022/07/31 03:30:24;;;;;;;2.83;2.45;;;19.70;47.50;;;20.69;40.34;97819.94;5069770;28;20278;-43
2022/07/31 03:32:56;;;;;;;7.55;3.45;;;19.70;47.60;;;20.67;40.62;97822.88;5070521;28;20052;-42
2022/07/31 03:35:25;;;;;;;4.45;2.90;;;19.70;47.70;;;20.64;40.38;97826.00;5071085;28;20173;-43
2022/07/31 03:37:54;;;;;;;4.03;3.17;;;19.60;47.60;;;20.62;40.13;97831.63;5068894;28;20261;-43
2022/07/31 03:40:23;;;;;;;5.25;2.95;;;19.60;47.60;;;20.60;40.29;97827.50;5070120;28;20379;-42
2022/07/31 03:42:53;;;;;;;3.20;2.90;;;19.60;47.50;;;20.58;40.27;97827.69;5071066;28;20052;-42
2022/07/31 03:45:22;;;;;;;3.35;2.95;;;19.60;47.50;;;20.57;40.39;97828.75;5054397;28;20056;-42
2022/07/31 03:47:50;;;;;;;3.08;2.60;;;19.60;47.50;;;20.57;40.33;97825.19;5053770;28;20048;-42
2022/07/31 03:50:18;;;;;;;3.65;2.72;;;19.60;47.30;;;20.56;40.22;97827.06;5070886;28;20048;-42
2022/07/31 03:52:47;;;;;;;3.05;2.72;;;19.60;47.20;;;20.56;40.00;97837.06;5071522;28;20346;-42
2022/07/31 03:55:16;;;;;;;4.00;2.78;;;19.60;47.00;;;20.56;39.93;97827.06;5054393;28;20051;-42
2022/07/31 04:45:57;;;;;;;3.22;2.92;;;18.60;50.20;;;18.07;44.63;97848.78;5063365;28;20363;-41
2022/07/31 04:48:25;;;;;;;3.85;2.35;;;18.70;48.70;;;18.52;44.31;97850.91;5058892;28;20224;-41
2022/07/31 08:29:59;;;;;;;3.15;2.85;;;22.90;43.90;;;22.20;42.66;97864.47;5103898;27;20162;-48
2022/07/31 08:32:29;;;;;;;4.85;3.30;;;22.90;45.50;;;22.57;41.38;97855.41;5082352;28;20052;-49
2022/07/31 08:35:20;;;;;;;4.75;3.22;;;23.00;45.20;;;22.96;40.71;97851.16;5084493;28;20060;-49
2022/07/31 08:37:48;;;;;;;3.30;3.00;;;23.10;44.90;;;23.27;40.43;97856.50;5097872;28;20064;-51
2022/07/31 08:40:30;;;;;;;4.25;3.13;;;23.30;44.60;;;23.56;39.67;97851.97;5099102;28;20408;-47
2022/07/31 10:05:24;;;;;;;2.85;2.40;;;24.90;37.80;;;24.10;37.69;97809.00;5105984;27;20162;-49
2022/07/31 10:07:59;;;;;;;3.00;2.78;;;25.00;39.20;;;24.55;37.11;97796.47;5099140;28;20044;-52
2022/07/31 10:10:47;;;;;;;3.15;2.80;;;25.20;39.00;;;25.04;36.15;97798.56;5084110;28;20046;-47
2022/07/31 10:13:23;;;;;;;4.03;3.10;;;25.60;38.10;;;25.45;35.41;97797.22;5081227;28;20064;-51
2022/07/31 10:15:57;;;;;;;3.40;2.63;;;25.90;37.10;;;25.78;35.08;97798.13;5066643;28;20257;-47
2022/07/31 10:18:55;;;;;;;3.75;2.70;;;26.10;37.90;;;26.09;34.77;97795.78;5061568;28;20064;-48
2022/07/31 10:21:46;;;;;;;3.05;2.72;;;26.20;37.30;;;26.33;33.91;97791.63;5070444;28;20043;-52
2022/07/31 10:24:26;;;;;;;4.35;2.70;;;26.30;35.80;;;26.46;33.54;97787.66;5083496;28;20060;-49
2022/07/31 10:26:58;;;;;;;5.10;2.88;;;26.50;36.70;;;26.66;33.54;97787.03;5098022;28;20412;-48
2022/07/31 10:29:38;;;;;;;3.15;2.88;;;26.60;36.60;;;26.84;32.77;97791.22;5081557;28;20056;-49
2022/07/31 10:32:07;;;;;;;4.78;2.60;;;26.70;36.00;;;27.00;32.71;97773.03;5082514;28;20275;-51
2022/07/31 10:34:40;;;;;;;3.10;2.55;;;26.90;35.90;;;27.16;32.89;97773.09;5099181;28;20048;-53
2022/07/31 10:37:52;;;;;;;2.40;2.20;;;26.90;36.00;;;27.33;32.32;97783.88;5098533;28;20060;-50
2022/07/31 10:40:54;;;;;;;4.15;3.17;;;27.10;35.50;;;27.40;32.14;97770.81;5070081;28;20056;-51
2022/07/31 10:43:55;;;;;;;3.00;2.35;;;27.10;34.70;;;27.47;32.00;97766.72;5080745;28;20054;-48
2022/07/31 10:46:31;;;;;;;3.25;2.75;;;27.20;34.10;;;27.58;31.62;97769.50;5080800;28;20045;-48
2022/07/31 10:49:13;;;;;;;2.60;2.38;;;27.30;35.30;;;27.75;31.75;97769.28;5067669;28;20044;-51
2022/07/31 10:52:37;;;;;;;2.78;2.42;;;27.60;35.10;;;27.89;30.83;97762.22;5082068;28;20412;-50
2022/07/31 10:55:34;;;;;;;2.78;2.45;;;27.70;33.00;;;27.94;31.02;97753.22;5075828;28;20060;-49
2022/07/31 10:58:18;;;;;;;3.10;2.63;;;27.80;33.90;;;28.00;30.48;97754.88;5078919;28;20273;-51
2022/07/31 11:01:08;;;;;;;3.92;3.63;;;27.80;32.40;;;28.10;29.92;97754.88;5085862;28;20651;-49
2022/07/31 11:03:48;;;;;;;4.60;2.63;;;27.90;31.50;;;28.16;30.09;97751.03;5096779;28;20063;-49
2022/07/31 11:06:52;;;;;;;2.70;2.20;;;28.00;32.90;;;28.33;30.45;97741.75;5079684;28;20383;-49
2022/07/31 11:09:49;;;;;;;2.72;2.40;;;28.10;33.50;;;28.42;30.20;97743.66;5072658;28;20227;-49
2022/07/31 11:13:09;;;;;;;3.25;2.95;;;28.20;32.90;;;28.52;29.46;97728.31;5079665;28;20052;-50
2022/07/31 11:16:05;;;;;;;3.45;2.50;;;28.30;31.20;;;28.56;29.70;97729.44;5071710;28;20351;-51
2022/07/31 11:19:06;;;;;;;2.92;2.20;;;28.30;31.70;;;28.60;29.21;97733.28;5072467;28;20360;-48
2022/07/31 11:21:40;;;;;;;2.95;2.63;;;28.30;31.10;;;28.63;28.97;97727.22;5068412;28;20372;-53
2022/07/31 11:24:17;;;;;;;4.10;2.65;;;28.30;30.90;;;28.69;28.95;97733.50;5068487;28;20060;-51
2022/07/31 11:26:57;;;;;;;6.38;2.75;;;28.40;31.80;;;28.74;28.78;97725.31;5067685;28;20053;-48
2022/07/31 11:29:34;;;;;;;3.72;3.22;;;28.50;30.90;;;28.82;29.13;97732.94;5067149;28;20040;-50
2022/07/31 11:32:22;;;;;;;4.00;2.80;;;28.60;30.70;;;28.90;28.69;97723.34;5068085;28;20368;-49
2022/07/31 11:34:55;;;;;;;3.47;2.50;;;28.70;31.20;;;28.95;28.56;97729.63;5068048;28;20052;-48
2022/07/31 11:37:30;;;;;;;5.55;2.88;;;28.70;30.90;;;29.00;28.59;97721.41;5068596;28;20384;-49
2022/07/31 11:40:19;;;;;;;11.07;3.30;;;28.80;30.90;;;29.11;29.04;97718.63;5067781;28;20060;-47
2022/07/31 11:42:56;;;;;;;2.75;2.55;;;28.80;31.20;;;29.15;28.40;97725.22;5066596;28;20045;-49
2022/07/31 11:45:47;;;;;;;6.78;3.22;;;28.90;30.20;;;29.23;27.95;97716.41;5067963;28;20052;-51
2022/07/31 11:48:17;;;;;;;2.75;2.55;;;28.90;29.60;;;29.25;28.15;97714.19;5067359;28;20062;-51
2022/07/31 11:50:48;;;;;;;4.25;2.83;;;28.90;30.30;;;29.31;27.71;97715.81;5066770;28;20048;-48
2022/07/31 11:53:18;;;;;;;3.45;3.13;;;29.00;30.70;;;29.34;27.71;97708.97;5067110;28;20308;-48
2022/07/31 11:55:47;;;;;;;3.25;2.95;;;29.10;30.50;;;29.37;27.48;97703.72;5068201;28;20062;-51
2022/07/31 11:58:18;;;;;;;3.58;3.28;;;29.10;30.40;;;29.35;27.66;97703.19;5069286;28;20056;-49
2022/07/31 12:00:50;;;;;;;5.53;2.70;;;29.00;30.10;;;29.42;27.12;97703.69;5067254;28;20249;-47
2022/07/31 12:03:27;;;;;;;3.20;2.90;;;29.10;29.70;;;29.39;27.47;97697.94;5067350;28;20113;-50
2022/07/31 12:05:55;;;;;;;2.70;2.50;;;29.10;30.00;;;29.47;27.33;97683.66;5067559;28;20106;-51
2022/07/31 12:08:25;;;;;;;2.85;2.40;;;29.20;30.20;;;29.48;27.53;97681.72;5069857;28;20330;-49
2022/07/31 12:10:55;;;;;;;2.70;2.50;;;29.10;30.20;;;29.59;27.29;97680.56;5077789;28;20360;-50
2022/07/31 12:13:25;;;;;;;4.05;3.70;;;29.30;29.60;;;29.58;27.20;97682.47;5076088;28;20354;-48
2022/07/31 12:16:07;;;;;;;3.38;3.08;;;29.30;29.90;;;29.67;26.86;97682.72;5078678;28;20346;-48
2022/07/31 12:18:52;;;;;;;3.90;3.10;;;29.50;29.10;;;29.63;27.05;97684.38;5074917;28;20053;-48
2022/07/31 12:21:32;;;;;;;3.72;2.33;;;29.30;29.40;;;29.69;26.87;97672.28;5077974;28;20356;-50
2022/07/31 12:24:01;;;;;;;2.95;2.17;;;29.30;29.10;;;29.75;26.49;97676.66;5076064;28;20052;-49
2022/07/31 12:26:32;;;;;;;2.78;2.58;;;29.40;29.00;;;29.77;26.54;97668.13;5075461;28;20059;-50
2022/07/31 12:29:01;;;;;;;2.50;2.30;;;29.50;29.10;;;29.79;26.58;97676.91;5075581;28;20044;-48
2022/07/31 12:31:49;;;;;;;2.80;2.60;;;29.50;29.40;;;29.82;26.78;97670.84;5076121;28;20041;-49
2022/07/31 12:34:39;;;;;;;2.70;2.50;;;29.60;29.30;;;29.89;26.85;97659.53;5079402;28;20048;-48
2022/07/31 12:37:15;;;;;;;5.53;2.65;;;29.70;29.40;;;29.97;27.00;97658.91;5083244;28;20044;-49
2022/07/31 12:39:49;;;;;;;4.55;2.80;;;29.70;29.30;;;29.99;26.71;97667.69;5083346;28;20068;-49
2022/07/31 12:42:35;;;;;;;2.65;2.42;;;29.70;29.20;;;30.06;26.62;97662.69;5082094;28;20052;-51
2022/07/31 12:45:09;;;;;;;2.70;2.40;;;29.70;29.00;;;30.14;26.30;97651.09;5083132;28;20040;-49
2022/07/31 12:47:52;;;;;;;2.85;2.38;;;29.80;28.80;;;30.26;25.86;97661.69;5082674;28;20245;-51
2022/07/31 12:50:20;;;;;;;2.25;2.05;;;30.00;28.60;;;30.33;26.03;97662.19;5083253;28;20044;-52
2022/07/31 12:52:48;;;;;;;3.65;3.00;;;30.10;29.00;;;30.39;25.99;97655.53;5082450;28;20067;-50
2022/07/31 12:55:16;;;;;;;4.80;3.00;;;30.20;28.70;;;30.33;26.00;97655.91;5082640;28;20052;-48
2022/07/31 12:57:45;;;;;;;3.10;2.65;;;30.00;29.00;;;30.33;25.79;97632.00;5082780;28;20048;-47
2022/07/31 13:00:23;;;;;;;3.28;2.53;;;29.90;28.70;;;30.34;25.58;97636.41;5081490;28;20048;-50
2022/07/31 13:02:54;;;;;;;5.13;2.70;;;30.00;28.70;;;30.34;25.81;97633.66;5081993;28;20044;-50
2022/07/31 13:05:23;;;;;;;2.50;2.30;;;30.00;28.80;;;30.49;25.66;97642.81;5080524;28;20249;-50
2022/07/31 13:07:51;;;;;;;2.70;2.50;;;30.30;28.60;;;30.49;25.55;97629.09;5079936;28;20045;-48
2022/07/31 13:10:20;;;;;;;2.80;2.60;;;30.20;28.50;;;30.46;25.17;97633.25;5076140;28;20052;-52
2022/07/31 13:12:52;;;;;;;3.55;2.72;;;30.10;28.20;;;30.42;25.15;97633.00;5075249;28;20254;-49
2022/07/31 13:15:28;;;;;;;3.10;2.60;;;30.00;28.50;;;30.48;25.27;97625.53;5072531;28;20350;-52
2022/07/31 13:18:00;;;;;;;4.10;3.38;;;30.20;28.40;;;30.67;25.52;97616.53;5071917;28;20358;-47
2022/07/31 13:20:29;;;;;;;2.80;2.53;;;30.50;28.20;;;30.89;24.56;97618.75;5072130;28;20060;-52
2022/07/31 13:22:58;;;;;;;3.17;2.88;;;30.80;27.60;;;31.09;24.80;97618.50;5068670;28;20060;-52
2022/07/31 13:25:29;;;;;;;5.57;2.67;;;31.10;27.70;;;31.22;24.39;97605.97;5069146;28;20306;-49
2022/07/31 13:27:58;;;;;;;3.72;2.92;;;31.20;27.30;;;31.43;23.86;97600.97;5068512;28;20048;-48
2022/07/31 13:30:29;;;;;;;3.08;2.75;;;31.50;26.70;;;31.51;22.20;97591.28;5067356;28;20062;-48
2022/07/31 13:32:57;;;;;;;4.05;2.83;;;31.40;25.80;;;31.59;22.60;97593.34;5066876;28;20058;-49
2022/07/31 13:35:25;;;;;;;3.85;2.50;;;31.50;26.10;;;31.81;23.37;97587.19;5067152;28;20060;-49
2022/07/31 13:37:56;;;;;;;3.10;2.75;;;31.80;26.50;;;31.98;23.42;97594.91;5067548;28;20044;-47
2022/07/31 13:43:12;;;;;;;4.80;2.53;;;31.80;26.20;;;31.93;23.22;97587.56;5066112;28;20377;-50
2022/07/31 13:45:40;;;;;;;2.60;2.40;;;31.60;26.50;;;31.85;22.98;97574.47;5068226;28;20049;-46
2022/07/31 13:48:08;;;;;;;3.00;2.78;;;31.40;26.40;;;31.90;22.97;97579.88;5067252;28;20059;-51
2022/07/31 13:50:40;;;;;;;3.03;2.80;;;31.50;25.90;;;32.08;22.77;97577.41;5066347;28;20326;-47
2022/07/31 13:53:09;;;;;;;4.45;2.47;;;31.80;26.00;;;32.21;22.37;97573.84;5065258;28;20044;-48
2022/07/31 13:55:37;;;;;;;4.97;2.78;;;32.00;26.20;;;32.44;22.47;97579.50;5065780;28;20082;-48
2022/07/31 13:58:05;;;;;;;2.97;2.78;;;32.30;25.20;;;32.60;22.16;97574.53;5065719;28;20056;-46
2022/07/31 14:00:33;;;;;;;4.13;2.83;;;32.50;25.50;;;32.69;22.18;97581.78;5066251;28;20064;-49
2022/07/31 14:03:01;;;;;;;8.95;2.97;;;32.50;25.60;;;32.74;22.11;97578.88;5065329;28;20058;-51
2022/07/31 14:05:29;;;;;;;2.63;2.38;;;32.60;25.60;;;32.90;21.48;97571.13;5066397;28;20049;-53
2022/07/31 14:08:05;;;;;;;2.58;2.38;;;32.70;25.30;;;32.79;21.33;97571.66;5063787;28;20040;-48
2022/07/31 14:10:54;;;;;;;3.38;2.92;;;32.20;25.10;;;32.58;22.13;97569.31;5065265;28;20253;-49
2022/07/31 14:13:22;;;;;;;2.67;2.47;;;32.00;26.30;;;32.62;22.43;97558.50;5067000;28;20051;-49
2022/07/31 14:15:50;;;;;;;3.00;2.63;;;32.10;26.10;;;32.69;22.35;97564.44;5067525;28;20053;-49
2022/07/31 14:18:18;;;;;;;4.10;3.33;;;32.20;26.10;;;32.85;22.00;97556.63;5065358;28;20056;-51
2022/07/31 14:20:46;;;;;;;4.20;3.17;;;32.40;25.20;;;33.01;22.14;97560.69;5065583;28;20070;-52
2022/07/31 14:23:14;;;;;;;3.40;3.10;;;32.70;25.40;;;33.09;22.03;97562.69;5066492;28;20062;-37
2022/07/31 14:25:42;;;;;;;3.58;2.92;;;32.50;25.90;;;32.91;21.66;97566.44;5066022;28;20045;-35
2022/07/31 14:28:10;;;;;;;2.90;2.70;;;32.10;26.30;;;32.69;22.44;97561.66;5065415;28;20050;-34
2022/07/31 14:30:44;;;;;;;2.95;2.67;;;31.90;25.80;;;32.69;22.00;97565.22;5066349;28;20041;-34
2022/07/31 14:33:13;;;;;;;9.73;3.92;;;32.00;26.40;;;32.45;22.20;97553.56;5064167;28;20044;-34
2022/07/31 14:35:41;;;;;;;2.85;2.65;;;31.70;26.50;;;32.26;22.91;97557.25;5066801;28;20270;-34
2022/07/31 14:38:09;;;;;;;3.90;2.50;;;31.40;26.70;;;32.06;22.25;97555.69;5064323;28;20076;-34
2022/07/31 14:40:36;;;;;;;5.13;4.63;;;31.20;26.60;;;32.10;22.46;97550.38;5065809;28;20059;-34
2022/07/31 14:43:04;;;;;;;4.07;3.67;;;31.50;26.50;;;32.25;22.73;97546.53;5066219;28;20254;-34
2022/07/31 14:45:32;;;;;;;3.03;2.60;;;31.60;26.40;;;32.36;22.90;97547.97;5068036;28;20040;-34
2022/07/31 14:48:18;;;;;;;2.80;2.45;;;32.00;26.60;;;32.46;21.93;97542.25;5063250;28;20041;-34
2022/07/31 14:50:45;;;;;;;6.88;6.25;;;32.00;26.10;;;32.34;22.49;97542.75;5065378;28;20246;-33
2022/07/31 14:53:13;;;;;;;21.25;3.65;;;31.70;26.10;;;32.27;22.37;97544.28;5069483;28;20060;-33
2022/07/31 14:55:41;;;;;;;4.22;3.00;;;31.50;26.70;;;32.26;22.72;97556.41;5067864;28;20252;-34
2022/07/31 14:58:09;;;;;;;3.90;3.28;;;31.60;27.00;;;32.35;23.47;97547.13;5068345;28;20263;-33
2022/07/31 15:00:37;;;;;;;2.67;2.47;;;31.80;26.90;;;32.40;23.53;97537.13;5068447;28;20071;-33
2022/07/31 15:03:05;;;;;;;3.20;2.90;;;31.90;26.90;;;32.35;23.13;97543.56;5069368;28;20059;-33
2022/07/31 15:05:33;;;;;;;2.75;2.55;;;31.60;27.00;;;32.26;23.60;97539.88;5069028;28;20057;-33
2022/07/31 15:08:21;;;;;;;3.70;3.40;;;31.60;27.10;;;32.40;23.55;97540.72;5068943;28;20479;-33
2022/07/31 15:10:49;;;;;;;2.92;2.70;;;31.80;27.00;;;32.37;22.93;97536.63;5069063;28;20052;-33
2022/07/31 15:13:17;;;;;;;4.00;2.95;;;31.80;26.70;;;32.32;22.84;97533.19;5067848;28;20661;-35
2022/07/31 15:15:47;;;;;;;3.40;2.70;;;31.60;26.40;;;32.33;22.34;97541.13;5067548;28;20242;-33
2022/07/31 15:18:15;;;;;;;3.10;2.80;;;31.80;26.50;;;32.55;22.81;97531.31;5067582;28;20052;-33
2022/07/31 15:20:42;;;;;;;4.25;3.10;;;32.20;26.60;;;32.72;22.78;97527.97;5067554;28;20246;-33
2022/07/31 15:23:11;;;;;;;3.35;3.05;;;32.20;26.30;;;32.79;22.68;97542.16;5069869;28;20052;-33
2022/07/31 15:25:39;;;;;;;5.30;2.95;;;32.20;26.40;;;32.86;22.81;97534.28;5068381;28;20070;-33
2022/07/31 15:28:06;;;;;;;3.17;2.85;;;32.20;26.40;;;32.92;22.20;97527.53;5067615;28;20048;-33
2022/07/31 15:30:34;;;;;;;2.97;2.63;;;32.30;26.40;;;33.09;22.51;97526.03;5068913;28;20044;-32
2022/07/31 15:33:02;;;;;;;3.47;3.08;;;32.50;26.20;;;33.31;22.67;97520.59;5069284;28;20052;-32
2022/07/31 15:35:30;;;;;;;3.63;3.10;;;32.90;26.10;;;33.57;21.72;97527.44;5069140;28;20062;-33
2022/07/31 15:37:58;;;;;;;3.50;3.20;;;33.20;25.60;;;33.88;21.89;97525.53;5069073;28;20044;-33
2022/07/31 15:40:26;;;;;;;3.40;3.10;;;33.50;25.20;;;34.14;21.15;97522.06;5068912;28;20062;-33
2022/07/31 15:42:54;;;;;;;3.17;2.88;;;33.70;25.10;;;34.32;21.01;97506.44;5068382;28;20055;-34
2022/07/31 15:45:21;;;;;;;3.95;3.05;;;33.80;25.10;;;34.36;20.94;97518.47;5069456;28;20048;-33
2022/07/31 15:47:49;;;;;;;3.03;2.83;;;33.90;25.00;;;34.51;20.51;97515.25;5068443;28;20050;-33
2022/07/31 15:50:19;;;;;;;3.90;2.80;;;34.00;24.80;;;34.65;19.84;97514.31;5067448;28;20067;-32
2022/07/31 15:52:48;;;;;;;3.55;3.25;;;34.00;24.60;;;34.65;20.09;97512.38;5068302;28;20112;-33
2022/07/31 15:55:17;;;;;;;4.88;3.40;;;33.70;24.20;;;34.65;20.35;97519.84;5068419;28;20044;-33
2022/07/31 15:57:45;;;;;;;2.95;2.75;;;33.90;24.60;;;34.79;20.22;97514.22;5067562;28;20067;-32
2022/07/31 16:00:14;;;;;;;3.53;2.80;;;34.00;25.00;;;34.57;20.02;97510.41;5067887;28;20368;-33
2022/07/31 16:02:42;;;;;;;3.30;3.00;;;33.30;25.30;;;34.29;20.84;97512.59;5067859;28;20339;-33
2022/07/31 16:05:13;;;;;;;4.03;3.55;;;33.20;25.30;;;34.07;20.93;97505.97;5068012;28;20056;-33
2022/07/31 16:08:03;;;;;;;3.25;2.95;;;32.80;25.50;;;33.82;20.91;97510.22;5067958;28;20045;-33
2022/07/31 16:10:51;;;;;;;2.80;2.60;;;32.70;25.80;;;33.92;21.14;97501.66;5068055;28;20040;-33
2022/07/31 16:13:23;;;;;;;3.80;3.40;;;32.70;25.90;;;34.03;21.85;97498.66;5100964;28;20059;-33
2022/07/31 16:15:52;;;;;;;3.45;2.88;;;33.00;26.30;;;34.01;21.82;97501.72;5069104;28;20533;-33
2022/07/31 16:18:19;;;;;;;3.33;3.03;;;33.10;26.60;;;33.90;21.13;97501.19;5068646;28;20050;-33
2022/07/31 16:20:47;;;;;;;3.95;3.00;;;32.70;26.20;;;33.67;22.07;97500.41;5067874;28;20249;-33
2022/07/31 16:23:15;;;;;;;4.00;3.17;;;32.30;26.70;;;33.41;21.79;97493.88;5066993;28;20040;-34
2022/07/31 16:25:43;;;;;;;3.72;3.05;;;32.20;26.90;;;33.25;21.91;97490.66;5068572;28;20439;-33
2022/07/31 16:28:11;;;;;;;3.03;2.72;;;32.10;27.10;;;33.13;22.56;97489.31;5065275;28;20309;-33
2022/07/31 16:30:41;;;;;;;3.50;2.88;;;32.00;27.20;;;33.01;22.34;97483.47;5066917;28;20055;-33
2022/07/31 16:33:08;;;;;;;3.08;2.80;;;31.90;26.90;;;32.99;22.95;97482.97;5067008;28;20060;-33
2022/07/31 16:35:36;;;;;;;3.00;2.80;;;32.10;27.10;;;32.99;22.43;97494.00;5067695;28;20048;-33
2022/07/31 16:38:04;;;;;;;3.25;2.95;;;32.00;27.10;;;32.90;22.81;97477.41;5067221;28;20045;-33
2022/07/31 16:40:32;;;;;;;2.80;2.60;;;31.90;26.70;;;33.00;22.49;97479.13;5067347;28;20056;-33